createdAt,value
2022-08-28T00:02:24.680Z,18.78
2022-08-28T00:04:51.802Z,18.80
2022-08-28T00:07:18.643Z,18.82
2022-08-28T00:09:45.297Z,18.74
2022-08-28T00:12:12.480Z,18.76
2022-08-28T00:14:39.277Z,18.70
2022-08-28T00:17:06.144Z,18.76
2022-08-28T00:19:35.510Z,18.85
2022-08-28T00:22:06.360Z,18.91
2022-08-28T00:24:33.864Z,18.85
2022-08-28T00:27:18.589Z,18.75
2022-08-28T00:29:45.285Z,18.76
2022-08-28T00:32:11.830Z,18.76
2022-08-28T00:34:38.909Z,18.67
2022-08-28T00:37:05.938Z,18.60
2022-08-28T00:39:32.637Z,18.67
2022-08-28T00:41:59.244Z,18.63
2022-08-28T00:44:28.705Z,18.57
2022-08-28T00:46:57.370Z,18.58
2022-08-28T00:49:27.462Z,18.57
2022-08-28T00:52:12.746Z,18.57
2022-08-28T00:54:39.162Z,18.54
2022-08-28T00:57:09.892Z,18.52
2022-08-28T00:59:36.577Z,18.51
2022-08-28T01:02:03.945Z,18.46
2022-08-28T01:04:32.722Z,18.50
2022-08-28T01:10:51.453Z,18.46
2022-08-28T01:13:18.999Z,18.43
2022-08-28T01:15:46.071Z,18.48
2022-08-28T01:18:17.685Z,18.52
2022-08-28T01:20:51.592Z,18.50
2022-08-28T01:23:49.449Z,18.54
2022-08-28T01:26:15.936Z,18.54
2022-08-28T01:28:42.411Z,18.55
2022-08-28T01:31:11.696Z,18.54
2022-08-28T01:33:42.609Z,18.54
2022-08-28T01:36:12.011Z,18.49
2022-08-28T01:38:40.725Z,18.62
2022-08-28T01:41:07.366Z,18.62
2022-08-28T01:43:34.123Z,18.61
2022-08-28T01:46:04.547Z,18.65
2022-08-28T01:48:36.213Z,18.59
2022-08-28T01:51:03.269Z,18.64
2022-08-28T01:53:32.514Z,18.64
2022-08-28T01:56:04.496Z,18.65
2022-08-28T01:58:36.045Z,18.63
2022-08-28T02:01:08.620Z,18.67
2022-08-28T02:03:35.113Z,18.69
2022-08-28T02:06:01.736Z,18.59
2022-08-28T02:08:28.224Z,18.63
2022-08-28T02:10:54.691Z,18.69
2022-08-28T02:13:22.226Z,18.68
2022-08-28T02:15:52.318Z,18.64
2022-08-28T02:18:18.945Z,18.52
2022-08-28T02:20:45.443Z,18.65
2022-08-28T02:23:12.610Z,18.64
2022-08-28T02:25:39.543Z,18.69
2022-08-28T02:28:06.106Z,18.64
2022-08-28T02:30:33.094Z,18.72
2022-08-28T02:32:59.665Z,18.71
2022-08-28T02:35:26.141Z,18.63
2022-08-28T02:37:54.563Z,18.67
2022-08-28T02:40:24.601Z,18.63
2022-08-28T02:42:52.111Z,18.74
2022-08-28T02:45:19.918Z,18.70
2022-08-28T02:47:47.923Z,18.62
2022-08-28T02:50:17.193Z,18.61
2022-08-28T02:52:44.019Z,18.56
2022-08-28T02:55:12.406Z,18.50
2022-08-28T02:57:38.938Z,18.54
2022-08-28T03:00:08.148Z,18.49
2022-08-28T03:02:34.719Z,18.37
2022-08-28T03:05:01.273Z,18.33
2022-08-28T03:07:29.210Z,18.29
2022-08-28T03:09:56.059Z,18.27
2022-08-28T03:12:25.767Z,18.28
2022-08-28T03:14:54.253Z,18.18
2022-08-28T03:17:22.150Z,18.17
2022-08-28T03:19:50.194Z,18.14
2022-08-28T03:22:39.463Z,18.18
2022-08-28T03:25:07.049Z,18.26
2022-08-28T03:27:33.982Z,18.16
2022-08-28T03:30:01.842Z,18.07
2022-08-28T03:32:29.448Z,18.12
2022-08-28T03:34:55.938Z,18.18
2022-08-28T03:37:22.456Z,18.17
2022-08-28T03:39:49.233Z,18.20
2022-08-28T03:42:15.812Z,18.15
2022-08-28T03:44:42.262Z,18.11
2022-08-28T03:47:09.067Z,18.02
2022-08-28T03:49:36.689Z,18.01
2022-08-28T03:52:04.050Z,18.05
2022-08-28T03:54:31.614Z,17.97
2022-08-28T03:56:58.748Z,17.98
2022-08-28T03:59:26.697Z,17.95
2022-08-28T04:01:58.176Z,17.99
2022-08-28T04:04:24.623Z,18.02
2022-08-28T04:06:51.085Z,17.98
2022-08-28T04:09:17.548Z,17.94
2022-08-28T04:11:44.032Z,17.90
2022-08-28T04:14:12.532Z,17.93
2022-08-28T04:16:39.211Z,17.89
2022-08-28T04:19:05.899Z,18.00
2022-08-28T04:21:32.403Z,17.99
2022-08-28T04:23:59.021Z,17.91
2022-08-28T04:26:27.108Z,17.82
2022-08-28T04:28:55.278Z,17.91
2022-08-28T04:31:32.158Z,17.82
2022-08-28T04:34:01.762Z,17.85
2022-08-28T04:36:28.919Z,17.82
2022-08-28T04:38:57.682Z,17.82
2022-08-28T04:41:24.182Z,17.74
2022-08-28T04:43:52.742Z,17.76
2022-08-28T04:46:19.574Z,17.75
2022-08-28T04:48:46.132Z,17.78
2022-08-28T04:51:15.056Z,17.78
2022-08-28T04:53:42.419Z,17.88
2022-08-28T04:56:11.682Z,17.93
2022-08-28T04:58:39.553Z,17.90
2022-08-28T05:01:09.216Z,17.92
2022-08-28T05:03:35.801Z,17.95
2022-08-28T05:06:03.617Z,17.91
2022-08-28T05:08:31.323Z,17.89
2022-08-28T05:10:58.937Z,17.88
2022-08-28T05:13:25.665Z,18.01
2022-08-28T05:15:52.535Z,18.05
2022-08-28T05:18:22.221Z,17.92
2022-08-28T05:20:49.010Z,17.81
2022-08-28T05:23:16.567Z,17.67
2022-08-28T05:25:46.402Z,17.58
2022-08-28T05:28:14.633Z,17.52
2022-08-28T05:30:41.997Z,17.56
2022-08-28T05:33:09.675Z,17.62
2022-08-28T05:35:38.584Z,17.64
2022-08-28T05:38:06.251Z,17.64
2022-08-28T05:40:33.848Z,17.60
2022-08-28T05:43:00.426Z,17.47
2022-08-28T05:45:26.934Z,17.39
2022-08-28T05:47:54.041Z,17.41
2022-08-28T05:50:20.607Z,17.35
2022-08-28T05:52:47.434Z,17.45
2022-08-28T05:55:14.011Z,17.62
2022-08-28T05:57:41.398Z,17.51
2022-08-28T06:00:12.630Z,17.63
2022-08-28T06:02:40.532Z,17.92
2022-08-28T06:05:07.699Z,17.95
2022-08-28T06:07:34.967Z,18.06
2022-08-28T06:10:01.722Z,18.14
2022-08-28T06:12:28.192Z,18.09
2022-08-28T06:14:54.798Z,18.16
2022-08-28T06:17:23.862Z,18.17
2022-08-28T06:19:50.943Z,18.27
2022-08-28T06:22:18.434Z,18.21
2022-08-28T06:24:44.938Z,18.23
2022-08-28T06:27:11.464Z,18.26
2022-08-28T06:29:37.992Z,18.30
2022-08-28T06:32:04.737Z,18.33
2022-08-28T06:34:31.461Z,18.03
2022-08-28T06:36:57.953Z,18.11
2022-08-28T06:39:24.512Z,18.08
2022-08-28T06:41:51.033Z,18.17
2022-08-28T06:44:19.934Z,18.29
2022-08-28T06:46:51.672Z,18.15
2022-08-28T06:49:18.599Z,18.28
2022-08-28T06:51:45.152Z,18.18
2022-08-28T06:54:11.792Z,18.35
2022-08-28T06:56:38.561Z,18.40
2022-08-28T06:59:05.121Z,18.34
2022-08-28T07:01:35.046Z,18.44
2022-08-28T07:04:07.673Z,18.12
2022-08-28T07:06:39.403Z,18.06
2022-08-28T07:09:09.501Z,18.13
2022-08-28T07:11:36.952Z,18.13
2022-08-28T07:14:04.481Z,18.17
2022-08-28T07:16:34.957Z,18.40
2022-08-28T07:19:04.757Z,18.45
2022-08-28T07:21:33.241Z,18.64
2022-08-28T07:24:06.386Z,18.71
2022-08-28T07:26:32.886Z,18.72
2022-08-28T07:29:10.898Z,18.59
2022-08-28T07:31:41.030Z,18.83
2022-08-28T07:34:09.176Z,18.83
2022-08-28T07:36:35.948Z,19.08
2022-08-28T07:39:02.889Z,19.60
2022-08-28T07:41:32.169Z,19.25
2022-08-28T07:44:17.948Z,19.40
2022-08-28T07:46:45.769Z,19.28
2022-08-28T07:49:15.521Z,19.37
2022-08-28T07:51:41.974Z,19.56
2022-08-28T07:54:11.215Z,19.34
2022-08-28T07:56:43.657Z,19.42
2022-08-28T07:59:11.648Z,19.29
2022-08-28T08:01:44.087Z,19.54
2022-08-28T08:04:13.232Z,19.60
2022-08-28T08:06:41.196Z,19.23
2022-08-28T08:09:09.675Z,20.04
2022-08-28T08:11:36.218Z,19.92
2022-08-28T08:14:04.852Z,20.72
2022-08-28T08:16:35.517Z,21.30
2022-08-28T08:19:02.624Z,20.66
2022-08-28T08:21:30.577Z,20.14
2022-08-28T08:23:58.300Z,20.12
2022-08-28T08:26:28.105Z,20.57
2022-08-28T08:28:55.939Z,20.49
2022-08-28T08:31:26.670Z,20.38
2022-08-28T08:33:56.551Z,20.42
2022-08-28T08:36:25.269Z,20.52
2022-08-28T08:38:59.376Z,20.13
2022-08-28T08:41:33.768Z,20.60
2022-08-28T08:44:17.739Z,20.58
2022-08-28T08:47:03.518Z,20.95
2022-08-28T08:49:35.904Z,21.17
2022-08-28T08:52:05.309Z,21.38
2022-08-28T08:54:32.050Z,21.61
2022-08-28T08:57:02.213Z,21.01
2022-08-28T08:59:33.344Z,21.14
2022-08-28T09:02:10.521Z,20.98
2022-08-28T09:05:01.614Z,20.75
2022-08-28T09:07:37.993Z,20.39
2022-08-28T09:10:08.454Z,20.31
2022-08-28T09:13:12.643Z,20.16
2022-08-28T09:15:42.622Z,20.04
2022-08-28T09:18:18.173Z,19.77
2022-08-28T09:20:50.050Z,19.83
2022-08-28T09:23:16.549Z,19.87
2022-08-28T09:26:01.743Z,19.83
2022-08-28T09:28:37.035Z,19.98
2022-08-28T09:31:13.335Z,20.00
2022-08-28T09:33:43.113Z,19.87
2022-08-28T09:36:23.287Z,19.99
2022-08-28T09:39:14.742Z,20.02
2022-08-28T09:42:11.113Z,20.11
2022-08-28T09:45:09.037Z,20.00
2022-08-28T09:47:46.369Z,20.11
2022-08-28T09:50:30.337Z,19.97
2022-08-28T09:53:19.302Z,19.69
2022-08-28T09:56:10.996Z,20.09
2022-08-28T09:58:57.197Z,20.14
2022-08-28T10:01:29.399Z,20.23
2022-08-28T10:04:22.441Z,20.06
2022-08-28T10:06:51.975Z,19.52
2022-08-28T10:09:39.462Z,19.83
2022-08-28T10:12:40.183Z,19.64
2022-08-28T10:15:14.967Z,19.50
2022-08-28T10:18:06.665Z,19.48
2022-08-28T10:20:50.191Z,19.54
2022-08-28T10:23:42.650Z,19.52
2022-08-28T10:26:21.565Z,19.52
2022-08-28T10:29:18.710Z,19.41
2022-08-28T10:31:55.309Z,19.08
2022-08-28T10:34:30.731Z,18.46
2022-08-28T10:37:10.098Z,18.16
2022-08-28T10:39:53.742Z,18.81
2022-08-28T10:42:59.216Z,18.94
2022-08-28T10:45:26.250Z,18.66
2022-08-28T10:47:58.803Z,18.85
2022-08-28T10:50:30.057Z,18.93
2022-08-28T10:53:17.187Z,19.05
2022-08-28T10:55:49.870Z,18.71
2022-08-28T10:58:25.078Z,18.68
2022-08-28T11:00:56.174Z,18.77
2022-08-28T11:03:35.522Z,18.64
2022-08-28T11:06:11.327Z,18.92
2022-08-28T11:08:39.681Z,18.82
2022-08-28T11:11:13.297Z,18.70
2022-08-28T11:13:45.885Z,18.65
2022-08-28T11:16:23.403Z,18.76
2022-08-28T11:19:04.479Z,18.65
2022-08-28T11:21:41.195Z,18.46
2022-08-28T11:24:21.337Z,18.55
2022-08-28T11:27:00.430Z,18.27
2022-08-28T11:29:57.943Z,18.20
2022-08-28T11:32:33.707Z,18.63
2022-08-28T11:35:02.983Z,18.40
2022-08-28T11:37:40.506Z,17.81
2022-08-28T11:40:28.525Z,18.08
2022-08-28T11:43:16.932Z,18.40
2022-08-28T11:45:46.820Z,18.52
2022-08-28T11:48:36.305Z,18.59
2022-08-28T11:51:17.718Z,18.39
2022-08-28T11:54:03.873Z,18.67
2022-08-28T11:56:50.307Z,18.65
2022-08-28T11:59:22.883Z,18.62
2022-08-28T12:01:49.831Z,18.65
2022-08-28T12:04:20.106Z,18.80
2022-08-28T12:06:54.833Z,18.54
2022-08-28T12:09:40.229Z,18.67
2022-08-28T12:12:21.867Z,18.53
2022-08-28T12:14:48.288Z,18.47
2022-08-28T12:17:15.207Z,18.17
2022-08-28T12:19:51.169Z,18.40
2022-08-28T12:22:25.102Z,18.48
2022-08-28T12:25:01.170Z,18.36
2022-08-28T12:27:28.792Z,18.46
2022-08-28T12:29:57.630Z,18.67
2022-08-28T12:32:33.140Z,18.70
2022-08-28T12:34:59.591Z,18.68
2022-08-28T12:37:50.823Z,18.62
2022-08-28T12:40:50.151Z,18.99
2022-08-28T12:43:40.912Z,19.11
2022-08-28T12:46:19.979Z,19.26
2022-08-28T12:48:52.328Z,18.99
2022-08-28T12:51:25.354Z,19.31
2022-08-28T12:53:58.419Z,19.22
2022-08-28T12:56:29.998Z,19.27
2022-08-28T12:58:56.485Z,19.36
2022-08-28T13:01:33.951Z,19.48
2022-08-28T13:04:19.084Z,19.30
2022-08-28T13:06:45.748Z,18.87
2022-08-28T13:09:24.559Z,19.25
2022-08-28T13:11:51.577Z,19.36
2022-08-28T13:14:37.593Z,19.02
2022-08-28T13:17:04.744Z,19.49
2022-08-28T13:19:33.077Z,19.82
2022-08-28T13:22:02.582Z,19.90
2022-08-28T13:24:39.490Z,20.05
2022-08-28T13:27:16.430Z,20.17
2022-08-28T13:30:20.760Z,20.20
2022-08-28T13:33:14.729Z,19.51
2022-08-28T13:35:42.237Z,19.40
2022-08-28T13:38:12.389Z,19.02
2022-08-28T13:40:57.974Z,19.31
2022-08-28T13:43:28.768Z,18.95
2022-08-28T13:45:55.589Z,19.41
2022-08-28T13:48:25.839Z,19.46
2022-08-28T13:51:10.840Z,19.43
2022-08-28T13:53:41.201Z,19.52
2022-08-28T13:56:07.703Z,19.68
2022-08-28T13:58:34.220Z,19.56
2022-08-28T14:01:01.761Z,19.58
2022-08-28T14:03:38.542Z,19.71
2022-08-28T14:06:12.214Z,19.80
2022-08-28T14:08:40.840Z,19.75
2022-08-28T14:11:08.302Z,19.72
2022-08-28T14:13:39.836Z,19.77
2022-08-28T14:16:08.044Z,19.83
2022-08-28T14:18:34.995Z,19.76
2022-08-28T14:21:05.159Z,19.83
2022-08-28T14:23:32.188Z,19.80
2022-08-28T14:25:58.708Z,19.12
2022-08-28T14:28:25.176Z,19.61
2022-08-28T14:30:52.741Z,19.83
2022-08-28T14:33:20.751Z,19.90
2022-08-28T14:35:48.842Z,19.78
2022-08-28T14:38:15.767Z,20.00
2022-08-28T14:40:44.436Z,19.61
2022-08-28T14:43:12.241Z,19.85
2022-08-28T14:45:44.660Z,19.71
2022-08-28T14:48:11.449Z,19.74
2022-08-28T14:50:44.038Z,19.57
2022-08-28T14:53:11.743Z,19.72
2022-08-28T14:55:41.004Z,19.48
2022-08-28T14:58:07.624Z,19.62
2022-08-28T15:00:39.560Z,19.77
2022-08-28T15:03:06.482Z,19.65
2022-08-28T15:05:34.059Z,19.81
2022-08-28T15:08:00.596Z,19.38
2022-08-28T15:10:27.071Z,19.57
2022-08-28T15:12:53.594Z,19.77
2022-08-28T15:15:22.899Z,19.78
2022-08-28T15:17:49.486Z,19.77
2022-08-28T15:20:16.075Z,19.78
2022-08-28T15:22:42.952Z,19.74
2022-08-28T15:25:09.680Z,19.85
2022-08-28T15:27:36.536Z,19.85
2022-08-28T15:30:04.631Z,19.91
2022-08-28T15:32:31.243Z,19.89
2022-08-28T15:34:57.795Z,19.90
2022-08-28T15:37:24.431Z,19.76
2022-08-28T15:40:09.469Z,19.62
2022-08-28T15:42:36.015Z,19.73
2022-08-28T15:45:02.499Z,20.04
2022-08-28T15:47:30.123Z,19.81
2022-08-28T15:49:57.095Z,19.68
2022-08-28T15:52:24.749Z,19.92
2022-08-28T15:54:51.343Z,19.65
2022-08-28T15:57:19.662Z,19.57
2022-08-28T15:59:50.649Z,19.87
2022-08-28T16:02:24.945Z,19.85
2022-08-28T16:04:52.567Z,19.92
2022-08-28T16:07:20.826Z,19.78
2022-08-28T16:09:47.834Z,19.89
2022-08-28T16:12:14.488Z,19.92
2022-08-28T16:14:41.151Z,20.01
2022-08-28T16:17:10.849Z,19.70
2022-08-28T16:19:39.683Z,19.94
2022-08-28T16:22:06.761Z,20.02
2022-08-28T16:24:33.670Z,19.99
2022-08-28T16:27:00.318Z,19.96
2022-08-28T16:29:26.814Z,19.95
2022-08-28T16:31:53.410Z,20.00
2022-08-28T16:34:20.244Z,19.96
2022-08-28T16:36:48.172Z,19.85
2022-08-28T16:39:14.873Z,19.87
2022-08-28T16:41:42.084Z,19.83
2022-08-28T16:44:09.008Z,19.85
2022-08-28T16:46:35.528Z,19.81
2022-08-28T16:49:02.555Z,19.89
2022-08-28T16:51:29.761Z,19.83
2022-08-28T16:53:56.533Z,19.73
2022-08-28T16:56:26.540Z,19.79
2022-08-28T16:58:53.412Z,19.66
2022-08-28T17:01:22.056Z,19.71
2022-08-28T17:03:51.870Z,19.72
2022-08-28T17:06:23.304Z,19.71
2022-08-28T17:08:55.927Z,19.60
2022-08-28T17:11:24.434Z,19.66
2022-08-28T17:13:51.134Z,19.66
2022-08-28T17:16:20.478Z,19.67
2022-08-28T17:18:48.377Z,19.59
2022-08-28T17:21:38.317Z,19.64
2022-08-28T17:24:05.074Z,19.61
2022-08-28T17:26:31.539Z,19.59
2022-08-28T17:28:58.130Z,19.57
2022-08-28T17:31:24.767Z,19.59
2022-08-28T17:33:51.534Z,19.60
2022-08-28T17:36:21.338Z,19.37
2022-08-28T17:39:00.213Z,19.37
2022-08-28T17:41:27.378Z,19.35
2022-08-28T17:43:53.982Z,19.34
2022-08-28T17:46:20.536Z,19.34
2022-08-28T17:48:54.491Z,19.27
2022-08-28T17:51:42.091Z,19.22
2022-08-28T17:54:10.174Z,19.22
2022-08-28T17:56:36.650Z,19.18
2022-08-28T17:59:04.200Z,19.10
2022-08-28T18:01:30.714Z,18.98
2022-08-28T18:04:01.058Z,19.01
2022-08-28T18:06:27.611Z,18.99
2022-08-28T18:08:54.491Z,18.98
2022-08-28T18:11:20.987Z,18.89
2022-08-28T18:13:47.597Z,18.87
2022-08-28T18:16:14.394Z,18.81
2022-08-28T18:18:41.856Z,18.75
2022-08-28T18:21:12.523Z,18.73
2022-08-28T18:23:39.865Z,18.69
2022-08-28T18:26:08.139Z,18.62
2022-08-28T18:28:36.113Z,18.57
2022-08-28T18:31:05.617Z,18.53
2022-08-28T18:33:33.322Z,18.54
2022-08-28T18:36:00.010Z,18.52
2022-08-28T18:38:34.976Z,18.47
2022-08-28T18:41:05.647Z,18.42
2022-08-28T18:43:32.318Z,18.41
2022-08-28T18:46:00.827Z,18.33
2022-08-28T18:48:27.845Z,18.18
2022-08-28T18:50:54.588Z,18.25
2022-08-28T18:53:22.289Z,18.11
2022-08-28T18:55:52.789Z,18.12
2022-08-28T18:58:20.434Z,18.13
2022-08-28T19:00:47.024Z,18.15
2022-08-28T19:03:14.559Z,18.08
2022-08-28T19:05:41.724Z,18.04
2022-08-28T19:08:08.223Z,18.08
2022-08-28T19:10:36.865Z,18.04
2022-08-28T19:13:04.561Z,17.94
2022-08-28T19:15:31.861Z,17.88
2022-08-28T19:18:00.434Z,17.98
2022-08-28T19:20:28.232Z,17.98
2022-08-28T19:22:55.845Z,18.02
2022-08-28T19:25:28.399Z,17.93
2022-08-28T19:27:59.786Z,17.93
2022-08-28T19:30:28.951Z,17.91
2022-08-28T19:32:55.716Z,17.82
2022-08-28T19:35:24.479Z,17.87
2022-08-28T19:37:52.110Z,17.82
2022-08-28T19:40:19.915Z,17.79
2022-08-28T19:42:46.587Z,17.78
2022-08-28T19:45:14.862Z,17.74
2022-08-28T19:47:41.520Z,17.69
2022-08-28T19:50:10.339Z,17.72
2022-08-28T19:52:38.890Z,17.73
2022-08-28T19:55:06.721Z,17.62
2022-08-28T19:57:33.838Z,17.68
2022-08-28T20:00:00.773Z,17.65
2022-08-28T20:02:28.494Z,17.62
2022-08-28T20:04:55.502Z,17.58
2022-08-28T20:07:23.070Z,17.51
2022-08-28T20:09:49.513Z,17.45
2022-08-28T20:12:16.090Z,17.45
2022-08-28T20:14:42.606Z,17.44
2022-08-28T20:17:09.528Z,17.37
2022-08-28T20:19:36.356Z,17.43
2022-08-28T20:22:03.899Z,17.41
2022-08-28T20:24:30.534Z,17.39
2022-08-28T20:26:57.370Z,17.38
2022-08-28T20:29:24.234Z,17.34
2022-08-28T20:31:51.295Z,17.33
2022-08-28T20:34:19.293Z,17.28
2022-08-28T20:36:46.110Z,17.25
2022-08-28T20:39:12.737Z,17.19
2022-08-28T20:41:40.407Z,17.19
2022-08-28T20:44:09.237Z,17.14
2022-08-28T20:46:40.760Z,17.14
2022-08-28T20:49:10.409Z,17.07
2022-08-28T20:51:55.621Z,17.12
2022-08-28T20:54:33.630Z,17.10
2022-08-28T20:57:03.518Z,17.02
2022-08-28T20:59:39.413Z,17.03
2022-08-28T21:02:10.442Z,16.95
2022-08-28T21:04:38.846Z,16.95
2022-08-28T21:07:05.910Z,16.93
2022-08-28T21:09:42.360Z,16.90
2022-08-28T21:12:19.820Z,16.88
2022-08-28T21:14:51.552Z,16.83
2022-08-28T21:17:22.601Z,16.82
2022-08-28T21:19:57.389Z,16.77
2022-08-28T21:22:23.899Z,16.71
2022-08-28T21:24:50.398Z,16.63
2022-08-28T21:27:18.448Z,16.55
2022-08-28T21:29:45.800Z,16.66
2022-08-28T21:32:12.401Z,16.54
2022-08-28T21:34:38.945Z,16.50
2022-08-28T21:37:06.295Z,16.49
2022-08-28T21:39:32.812Z,16.46
2022-08-28T21:41:59.285Z,16.41
2022-08-28T21:44:25.768Z,16.45
2022-08-28T21:46:52.305Z,16.35
2022-08-28T21:49:18.972Z,16.34
2022-08-28T21:51:45.643Z,16.28
2022-08-28T21:54:12.132Z,16.30
2022-08-28T21:56:38.627Z,16.22
2022-08-28T21:59:05.139Z,16.25
2022-08-28T22:01:31.687Z,16.16
2022-08-28T22:03:58.394Z,16.12
2022-08-28T22:06:26.396Z,16.04
2022-08-28T22:08:53.866Z,16.05
2022-08-28T22:11:24.730Z,16.04
2022-08-28T22:13:52.494Z,16.00
2022-08-28T22:16:19.620Z,15.87
2022-08-28T22:18:46.701Z,15.85
2022-08-28T22:21:33.515Z,15.97
2022-08-28T22:24:00.136Z,15.89
2022-08-28T22:26:26.925Z,15.90
2022-08-28T22:28:53.608Z,15.89
2022-08-28T22:31:20.611Z,15.86
2022-08-28T22:33:47.944Z,15.83
2022-08-28T22:36:14.468Z,15.80
2022-08-28T22:38:41.402Z,15.69
2022-08-28T22:41:13.626Z,15.75
2022-08-28T22:43:40.229Z,15.74
2022-08-28T22:46:08.273Z,15.65
2022-08-28T22:48:35.505Z,15.65
2022-08-28T22:51:08.997Z,15.66
2022-08-28T22:53:36.234Z,15.58
2022-08-28T22:56:03.551Z,15.51
2022-08-28T22:58:32.657Z,15.46
2022-08-28T23:01:02.064Z,15.46
2022-08-28T23:03:28.754Z,15.43
2022-08-28T23:05:55.530Z,15.31
2022-08-28T23:08:22.041Z,15.42
2022-08-28T23:10:59.024Z,15.33
2022-08-28T23:13:26.268Z,15.31
2022-08-28T23:15:52.845Z,15.24
2022-08-28T23:18:20.310Z,15.27
2022-08-28T23:20:46.887Z,15.30
2022-08-28T23:23:17.080Z,15.30
2022-08-28T23:25:43.952Z,15.26
2022-08-28T23:28:10.485Z,15.22
2022-08-28T23:30:38.863Z,15.21
2022-08-28T23:33:08.406Z,15.18
2022-08-28T23:35:36.311Z,15.12
2022-08-28T23:38:03.582Z,15.09
2022-08-28T23:40:30.602Z,15.03
2022-08-28T23:42:58.030Z,15.08
2022-08-28T23:45:26.038Z,15.03
2022-08-28T23:47:53.948Z,15.06
2022-08-28T23:50:23.258Z,14.97
2022-08-28T23:52:50.478Z,15.02
2022-08-28T23:55:18.680Z,15.00
2022-08-28T23:57:45.735Z,14.98
